sensor_id;sensor_type;location;lat;lon;timestamp;temperature;humidity
21493;DHT22;10908;50.690;4.400;2022-08-19T00:01:41;20.40;75.00
21493;DHT22;10908;50.690;4.400;2022-08-19T00:04:10;20.30;75.40
21493;DHT22;10908;50.690;4.400;2022-08-19T00:06:38;20.50;75.00
21493;DHT22;10908;50.690;4.400;2022-08-19T00:09:06;20.60;74.40
21493;DHT22;10908;50.690;4.400;2022-08-19T00:11:32;20.60;74.40
21493;DHT22;10908;50.690;4.400;2022-08-19T00:14:00;20.60;74.50
21493;DHT22;10908;50.690;4.400;2022-08-19T00:16:26;20.70;74.00
21493;DHT22;10908;50.690;4.400;2022-08-19T00:18:52;20.80;73.80
21493;DHT22;10908;50.690;4.400;2022-08-19T00:21:18;20.70;74.00
21493;DHT22;10908;50.690;4.400;2022-08-19T00:23:44;20.40;74.90
21493;DHT22;10908;50.690;4.400;2022-08-19T00:26:10;20.10;75.80
21493;DHT22;10908;50.690;4.400;2022-08-19T00:28:36;19.90;76.40
21493;DHT22;10908;50.690;4.400;2022-08-19T00:31:04;19.80;76.80
21493;DHT22;10908;50.690;4.400;2022-08-19T00:33:31;19.70;76.80
21493;DHT22;10908;50.690;4.400;2022-08-19T00:35:59;19.60;77.40
21493;DHT22;10908;50.690;4.400;2022-08-19T00:38:25;19.50;77.80
21493;DHT22;10908;50.690;4.400;2022-08-19T00:40:50;19.40;78.20
21493;DHT22;10908;50.690;4.400;2022-08-19T00:43:20;19.30;78.60
21493;DHT22;10908;50.690;4.400;2022-08-19T00:45:47;19.40;78.90
21493;DHT22;10908;50.690;4.400;2022-08-19T00:48:13;19.50;78.80
21493;DHT22;10908;50.690;4.400;2022-08-19T00:50:40;19.60;78.40
21493;DHT22;10908;50.690;4.400;2022-08-19T00:53:09;19.80;77.70
21493;DHT22;10908;50.690;4.400;2022-08-19T00:55:35;19.80;77.20
21493;DHT22;10908;50.690;4.400;2022-08-19T00:58:08;19.70;77.30
21493;DHT22;10908;50.690;4.400;2022-08-19T01:00:35;19.60;77.30
21493;DHT22;10908;50.690;4.400;2022-08-19T01:03:09;19.30;78.40
21493;DHT22;10908;50.690;4.400;2022-08-19T01:05:35;19.20;79.30
21493;DHT22;10908;50.690;4.400;2022-08-19T01:08:04;19.20;79.40
21493;DHT22;10908;50.690;4.400;2022-08-19T01:10:35;19.20;79.30
21493;DHT22;10908;50.690;4.400;2022-08-19T01:13:03;19.00;79.40
21493;DHT22;10908;50.690;4.400;2022-08-19T01:15:33;19.10;79.90
21493;DHT22;10908;50.690;4.400;2022-08-19T01:18:06;19.10;79.90
21493;DHT22;10908;50.690;4.400;2022-08-19T01:20:34;19.10;79.60
21493;DHT22;10908;50.690;4.400;2022-08-19T01:22:59;19.10;79.30
21493;DHT22;10908;50.690;4.400;2022-08-19T01:25:36;19.10;79.30
21493;DHT22;10908;50.690;4.400;2022-08-19T01:28:04;18.90;79.80
21493;DHT22;10908;50.690;4.400;2022-08-19T01:30:32;18.80;80.40
21493;DHT22;10908;50.690;4.400;2022-08-19T01:32:59;18.90;80.70
21493;DHT22;10908;50.690;4.400;2022-08-19T01:35:30;19.20;80.10
21493;DHT22;10908;50.690;4.400;2022-08-19T01:38:00;19.60;78.60
21493;DHT22;10908;50.690;4.400;2022-08-19T01:40:30;19.60;78.20
21493;DHT22;10908;50.690;4.400;2022-08-19T01:42:56;19.80;77.50
21493;DHT22;10908;50.690;4.400;2022-08-19T01:45:24;19.80;77.40
21493;DHT22;10908;50.690;4.400;2022-08-19T01:47:51;19.80;77.40
21493;DHT22;10908;50.690;4.400;2022-08-19T01:50:17;19.80;77.00
21493;DHT22;10908;50.690;4.400;2022-08-19T01:52:44;19.70;77.20
21493;DHT22;10908;50.690;4.400;2022-08-19T01:55:16;19.70;77.30
21493;DHT22;10908;50.690;4.400;2022-08-19T01:57:46;19.80;76.90
21493;DHT22;10908;50.690;4.400;2022-08-19T02:00:15;19.60;77.30
21493;DHT22;10908;50.690;4.400;2022-08-19T02:02:41;19.70;77.30
21493;DHT22;10908;50.690;4.400;2022-08-19T02:05:08;19.70;77.50
21493;DHT22;10908;50.690;4.400;2022-08-19T02:07:35;19.80;77.00
21493;DHT22;10908;50.690;4.400;2022-08-19T02:10:07;19.60;77.20
21493;DHT22;10908;50.690;4.400;2022-08-19T02:12:33;19.70;77.10
21493;DHT22;10908;50.690;4.400;2022-08-19T02:15:00;19.70;77.00
21493;DHT22;10908;50.690;4.400;2022-08-19T02:17:27;19.60;77.10
21493;DHT22;10908;50.690;4.400;2022-08-19T02:19:54;19.60;77.00
21493;DHT22;10908;50.690;4.400;2022-08-19T02:22:21;19.70;76.80
21493;DHT22;10908;50.690;4.400;2022-08-19T02:24:46;19.80;76.10
21493;DHT22;10908;50.690;4.400;2022-08-19T02:27:13;19.70;76.20
21493;DHT22;10908;50.690;4.400;2022-08-19T02:29:39;19.60;76.60
21493;DHT22;10908;50.690;4.400;2022-08-19T02:32:06;19.80;75.90
21493;DHT22;10908;50.690;4.400;2022-08-19T02:34:32;19.90;75.50
21493;DHT22;10908;50.690;4.400;2022-08-19T02:36:58;19.80;75.10
21493;DHT22;10908;50.690;4.400;2022-08-19T02:39:24;19.40;76.20
21493;DHT22;10908;50.690;4.400;2022-08-19T02:41:49;19.40;76.40
21493;DHT22;10908;50.690;4.400;2022-08-19T02:44:16;19.40;76.70
21493;DHT22;10908;50.690;4.400;2022-08-19T02:46:42;19.40;76.70
21493;DHT22;10908;50.690;4.400;2022-08-19T02:49:10;19.40;75.90
21493;DHT22;10908;50.690;4.400;2022-08-19T02:51:39;19.10;76.80
21493;DHT22;10908;50.690;4.400;2022-08-19T02:54:07;19.30;76.80
21493;DHT22;10908;50.690;4.400;2022-08-19T02:56:35;19.40;76.30
21493;DHT22;10908;50.690;4.400;2022-08-19T02:59:01;19.30;76.00
21493;DHT22;10908;50.690;4.400;2022-08-19T03:01:31;18.90;76.90
21493;DHT22;10908;50.690;4.400;2022-08-19T03:04:01;18.70;77.90
21493;DHT22;10908;50.690;4.400;2022-08-19T03:06:28;18.50;78.50
21493;DHT22;10908;50.690;4.400;2022-08-19T03:08:54;18.50;78.70
21493;DHT22;10908;50.690;4.400;2022-08-19T03:11:24;18.40;79.10
21493;DHT22;10908;50.690;4.400;2022-08-19T03:13:51;18.30;79.40
21493;DHT22;10908;50.690;4.400;2022-08-19T15:16:42;23.90;75.10
21493;DHT22;10908;50.690;4.400;2022-08-19T15:19:08;23.90;75.00
21493;DHT22;10908;50.690;4.400;2022-08-19T15:21:34;24.00;75.20
21493;DHT22;10908;50.690;4.400;2022-08-19T15:24:00;23.90;74.30
21493;DHT22;10908;50.690;4.400;2022-08-19T15:26:27;24.00;74.20
21493;DHT22;10908;50.690;4.400;2022-08-19T15:28:56;23.90;74.60
21493;DHT22;10908;50.690;4.400;2022-08-19T15:31:22;24.00;74.60
21493;DHT22;10908;50.690;4.400;2022-08-19T15:33:48;24.10;74.10
21493;DHT22;10908;50.690;4.400;2022-08-19T15:36:14;23.90;74.30
21493;DHT22;10908;50.690;4.400;2022-08-19T15:38:41;24.00;74.60
21493;DHT22;10908;50.690;4.400;2022-08-19T15:41:17;24.20;73.80
21493;DHT22;10908;50.690;4.400;2022-08-19T15:46:19;24.10;72.90
21493;DHT22;10908;50.690;4.400;2022-08-19T15:48:47;24.20;72.70
21493;DHT22;10908;50.690;4.400;2022-08-19T15:51:13;24.20;72.20
21493;DHT22;10908;50.690;4.400;2022-08-19T15:53:39;24.30;71.90
21493;DHT22;10908;50.690;4.400;2022-08-19T15:56:07;24.30;72.30
21493;DHT22;10908;50.690;4.400;2022-08-19T15:58:33;24.50;72.60
21493;DHT22;10908;50.690;4.400;2022-08-19T16:01:17;24.60;72.70
21493;DHT22;10908;50.690;4.400;2022-08-19T16:04:12;24.80;71.70
21493;DHT22;10908;50.690;4.400;2022-08-19T16:06:59;24.70;71.70
21493;DHT22;10908;50.690;4.400;2022-08-19T16:09:27;24.90;71.70
21493;DHT22;10908;50.690;4.400;2022-08-19T16:11:58;24.90;71.20
21493;DHT22;10908;50.690;4.400;2022-08-19T16:14:26;24.90;70.30
21493;DHT22;10908;50.690;4.400;2022-08-19T16:16:52;24.80;71.30
21493;DHT22;10908;50.690;4.400;2022-08-19T16:19:18;24.70;71.90
21493;DHT22;10908;50.690;4.400;2022-08-19T16:21:47;24.50;71.10
21493;DHT22;10908;50.690;4.400;2022-08-19T16:24:16;24.50;71.60
21493;DHT22;10908;50.690;4.400;2022-08-19T16:26:43;24.50;71.70
21493;DHT22;10908;50.690;4.400;2022-08-19T16:29:10;24.60;72.80
21493;DHT22;10908;50.690;4.400;2022-08-19T16:31:36;24.60;72.70
21493;DHT22;10908;50.690;4.400;2022-08-19T16:34:02;24.70;72.20
21493;DHT22;10908;50.690;4.400;2022-08-19T16:36:28;24.50;72.20
21493;DHT22;10908;50.690;4.400;2022-08-19T16:38:55;24.60;72.80
21493;DHT22;10908;50.690;4.400;2022-08-19T16:41:21;24.50;72.70
21493;DHT22;10908;50.690;4.400;2022-08-19T16:43:47;24.50;72.70
21493;DHT22;10908;50.690;4.400;2022-08-19T16:46:21;24.40;73.20
21493;DHT22;10908;50.690;4.400;2022-08-19T16:48:49;24.40;73.10
21493;DHT22;10908;50.690;4.400;2022-08-19T16:51:15;24.20;72.90
21493;DHT22;10908;50.690;4.400;2022-08-19T16:53:42;24.10;72.90
21493;DHT22;10908;50.690;4.400;2022-08-19T16:56:09;24.10;71.90
21493;DHT22;10908;50.690;4.400;2022-08-19T16:58:36;24.10;72.00
21493;DHT22;10908;50.690;4.400;2022-08-19T17:01:04;24.10;72.20
21493;DHT22;10908;50.690;4.400;2022-08-19T17:03:32;24.00;72.40
21493;DHT22;10908;50.690;4.400;2022-08-19T17:05:59;23.90;72.60
21493;DHT22;10908;50.690;4.400;2022-08-19T17:08:29;23.90;72.80
21493;DHT22;10908;50.690;4.400;2022-08-19T17:10:56;23.90;73.50
21493;DHT22;10908;50.690;4.400;2022-08-19T17:13:24;23.90;73.40
21493;DHT22;10908;50.690;4.400;2022-08-19T17:15:49;23.80;73.80
21493;DHT22;10908;50.690;4.400;2022-08-19T17:18:15;23.60;74.40
21493;DHT22;10908;50.690;4.400;2022-08-19T17:20:42;23.70;74.60
21493;DHT22;10908;50.690;4.400;2022-08-19T17:23:08;23.70;74.70
21493;DHT22;10908;50.690;4.400;2022-08-19T17:25:35;23.70;75.00
21493;DHT22;10908;50.690;4.400;2022-08-19T17:28:07;23.60;75.20
21493;DHT22;10908;50.690;4.400;2022-08-19T17:30:33;23.50;75.00
21493;DHT22;10908;50.690;4.400;2022-08-19T17:32:59;23.50;74.90
21493;DHT22;10908;50.690;4.400;2022-08-19T17:35:24;23.50;74.30
21493;DHT22;10908;50.690;4.400;2022-08-19T17:37:52;23.50;73.80
21493;DHT22;10908;50.690;4.400;2022-08-19T17:40:18;23.60;73.40
21493;DHT22;10908;50.690;4.400;2022-08-19T17:42:44;23.50;73.80
21493;DHT22;10908;50.690;4.400;2022-08-19T17:45:12;23.40;74.40
21493;DHT22;10908;50.690;4.400;2022-08-19T17:47:39;23.30;74.80
21493;DHT22;10908;50.690;4.400;2022-08-19T17:50:08;23.30;75.10
21493;DHT22;10908;50.690;4.400;2022-08-19T17:52:34;23.30;75.20
21493;DHT22;10908;50.690;4.400;2022-08-19T17:55:00;23.30;75.30
21493;DHT22;10908;50.690;4.400;2022-08-19T17:57:26;23.30;75.40
21493;DHT22;10908;50.690;4.400;2022-08-19T17:59:52;23.30;75.60
21493;DHT22;10908;50.690;4.400;2022-08-19T18:02:18;23.30;75.70
21493;DHT22;10908;50.690;4.400;2022-08-19T18:04:44;23.30;75.60
21493;DHT22;10908;50.690;4.400;2022-08-19T18:07:10;23.20;75.70
21493;DHT22;10908;50.690;4.400;2022-08-19T18:09:38;23.20;75.90
21493;DHT22;10908;50.690;4.400;2022-08-19T18:12:05;23.20;76.10
21493;DHT22;10908;50.690;4.400;2022-08-19T18:14:33;23.10;76.40
21493;DHT22;10908;50.690;4.400;2022-08-19T18:17:01;23.10;76.70
21493;DHT22;10908;50.690;4.400;2022-08-19T18:19:30;23.10;76.90
21493;DHT22;10908;50.690;4.400;2022-08-19T18:21:55;23.00;77.00
21493;DHT22;10908;50.690;4.400;2022-08-19T18:24:21;23.00;76.90
21493;DHT22;10908;50.690;4.400;2022-08-19T18:26:47;23.00;77.00
21493;DHT22;10908;50.690;4.400;2022-08-19T18:29:13;23.10;76.70
21493;DHT22;10908;50.690;4.400;2022-08-19T18:31:38;23.00;76.80
21493;DHT22;10908;50.690;4.400;2022-08-19T18:34:05;23.10;76.60
21493;DHT22;10908;50.690;4.400;2022-08-19T18:36:32;23.20;76.60
21493;DHT22;10908;50.690;4.400;2022-08-19T18:38:58;23.10;76.60
21493;DHT22;10908;50.690;4.400;2022-08-19T18:41:42;23.20;76.80
21493;DHT22;10908;50.690;4.400;2022-08-19T18:44:26;23.10;76.90
21493;DHT22;10908;50.690;4.400;2022-08-19T18:47:10;23.00;77.40
21493;DHT22;10908;50.690;4.400;2022-08-19T18:49:54;23.00;77.50
21493;DHT22;10908;50.690;4.400;2022-08-19T18:52:20;23.00;77.60
21493;DHT22;10908;50.690;4.400;2022-08-19T18:54:51;23.10;77.60
21493;DHT22;10908;50.690;4.400;2022-08-19T18:57:17;23.10;77.40
21493;DHT22;10908;50.690;4.400;2022-08-19T18:59:49;23.00;77.40
21493;DHT22;10908;50.690;4.400;2022-08-19T19:02:15;22.90;77.90
21493;DHT22;10908;50.690;4.400;2022-08-19T19:04:43;22.80;78.10
21493;DHT22;10908;50.690;4.400;2022-08-19T19:07:10;22.80;78.30
21493;DHT22;10908;50.690;4.400;2022-08-19T19:09:36;22.70;78.50
21493;DHT22;10908;50.690;4.400;2022-08-19T19:12:04;22.60;77.60
21493;DHT22;10908;50.690;4.400;2022-08-19T19:14:36;22.60;78.00
21493;DHT22;10908;50.690;4.400;2022-08-19T19:17:06;22.50;78.20
21493;DHT22;10908;50.690;4.400;2022-08-19T19:19:33;22.40;78.30
21493;DHT22;10908;50.690;4.400;2022-08-19T19:22:01;22.40;78.30
21493;DHT22;10908;50.690;4.400;2022-08-19T19:24:30;22.40;78.20
21493;DHT22;10908;50.690;4.400;2022-08-19T19:26:59;22.40;78.20
21493;DHT22;10908;50.690;4.400;2022-08-19T19:29:26;22.40;78.00
21493;DHT22;10908;50.690;4.400;2022-08-19T19:31:52;22.40;78.20
21493;DHT22;10908;50.690;4.400;2022-08-19T19:34:20;22.30;78.00
21493;DHT22;10908;50.690;4.400;2022-08-19T19:36:48;22.40;77.90
21493;DHT22;10908;50.690;4.400;2022-08-19T19:39:14;22.30;77.50
21493;DHT22;10908;50.690;4.400;2022-08-19T19:41:40;22.30;77.40
21493;DHT22;10908;50.690;4.400;2022-08-19T19:44:06;22.30;77.30
21493;DHT22;10908;50.690;4.400;2022-08-19T19:46:32;22.30;77.60
21493;DHT22;10908;50.690;4.400;2022-08-19T19:48:58;22.30;77.60
21493;DHT22;10908;50.690;4.400;2022-08-19T19:51:25;22.30;77.50
21493;DHT22;10908;50.690;4.400;2022-08-19T19:53:51;22.30;77.30
21493;DHT22;10908;50.690;4.400;2022-08-19T19:56:18;22.30;77.20
21493;DHT22;10908;50.690;4.400;2022-08-19T19:58:45;22.30;77.20
21493;DHT22;10908;50.690;4.400;2022-08-19T20:01:12;22.30;77.20
21493;DHT22;10908;50.690;4.400;2022-08-19T20:03:39;22.30;77.20
21493;DHT22;10908;50.690;4.400;2022-08-19T20:06:06;22.20;77.70
21493;DHT22;10908;50.690;4.400;2022-08-19T20:08:32;22.20;78.40
21493;DHT22;10908;50.690;4.400;2022-08-19T20:11:32;22.10;78.40
21493;DHT22;10908;50.690;4.400;2022-08-19T20:14:00;22.10;78.80
21493;DHT22;10908;50.690;4.400;2022-08-19T20:16:28;22.10;78.90
21493;DHT22;10908;50.690;4.400;2022-08-19T20:18:54;22.00;79.00
21493;DHT22;10908;50.690;4.400;2022-08-19T20:21:22;21.90;79.40
21493;DHT22;10908;50.690;4.400;2022-08-19T20:23:48;22.00;79.30
21493;DHT22;10908;50.690;4.400;2022-08-19T20:26:14;21.90;79.20
21493;DHT22;10908;50.690;4.400;2022-08-19T20:28:42;21.90;79.20
21493;DHT22;10908;50.690;4.400;2022-08-19T20:31:08;21.90;79.30
21493;DHT22;10908;50.690;4.400;2022-08-19T20:33:34;21.80;79.10
21493;DHT22;10908;50.690;4.400;2022-08-19T20:35:59;21.80;79.00
21493;DHT22;10908;50.690;4.400;2022-08-19T20:38:25;21.80;79.00
21493;DHT22;10908;50.690;4.400;2022-08-19T20:40:51;21.70;79.00
21493;DHT22;10908;50.690;4.400;2022-08-19T20:43:17;21.70;79.20
21493;DHT22;10908;50.690;4.400;2022-08-19T20:45:43;21.60;79.30
21493;DHT22;10908;50.690;4.400;2022-08-19T20:48:09;21.60;79.50
21493;DHT22;10908;50.690;4.400;2022-08-19T20:50:37;21.70;79.40
21493;DHT22;10908;50.690;4.400;2022-08-19T20:53:11;21.60;79.50
21493;DHT22;10908;50.690;4.400;2022-08-19T20:55:37;21.50;79.80
21493;DHT22;10908;50.690;4.400;2022-08-19T20:58:03;21.40;80.10
21493;DHT22;10908;50.690;4.400;2022-08-19T21:00:29;21.40;80.30
21493;DHT22;10908;50.690;4.400;2022-08-19T21:02:55;21.40;80.50
21493;DHT22;10908;50.690;4.400;2022-08-19T21:05:21;21.30;80.90
21493;DHT22;10908;50.690;4.400;2022-08-19T21:07:47;21.40;80.40
21493;DHT22;10908;50.690;4.400;2022-08-19T21:10:13;21.50;80.50
21493;DHT22;10908;50.690;4.400;2022-08-19T21:12:39;21.40;80.80
21493;DHT22;10908;50.690;4.400;2022-08-19T21:15:05;21.40;80.80
21493;DHT22;10908;50.690;4.400;2022-08-19T21:17:31;21.50;80.70
21493;DHT22;10908;50.690;4.400;2022-08-19T21:19:57;21.50;80.70
21493;DHT22;10908;50.690;4.400;2022-08-19T21:22:22;21.50;80.80
21493;DHT22;10908;50.690;4.400;2022-08-19T21:24:48;21.50;81.00
21493;DHT22;10908;50.690;4.400;2022-08-19T21:27:14;21.60;80.90
21493;DHT22;10908;50.690;4.400;2022-08-19T21:29:39;21.50;81.10
21493;DHT22;10908;50.690;4.400;2022-08-19T21:32:06;21.40;81.50
21493;DHT22;10908;50.690;4.400;2022-08-19T21:34:32;21.40;81.80
21493;DHT22;10908;50.690;4.400;2022-08-19T21:36:57;21.40;81.90
21493;DHT22;10908;50.690;4.400;2022-08-19T21:39:23;21.30;82.00
21493;DHT22;10908;50.690;4.400;2022-08-19T21:41:49;21.20;82.40
21493;DHT22;10908;50.690;4.400;2022-08-19T21:44:14;21.20;82.50
21493;DHT22;10908;50.690;4.400;2022-08-19T21:46:40;21.30;82.30
21493;DHT22;10908;50.690;4.400;2022-08-19T21:49:05;21.30;82.30
21493;DHT22;10908;50.690;4.400;2022-08-19T21:51:31;21.40;82.30
21493;DHT22;10908;50.690;4.400;2022-08-19T21:53:57;21.30;82.40
21493;DHT22;10908;50.690;4.400;2022-08-19T21:56:22;21.30;82.30
21493;DHT22;10908;50.690;4.400;2022-08-19T21:58:48;21.30;82.40
21493;DHT22;10908;50.690;4.400;2022-08-19T22:01:14;21.30;82.20
21493;DHT22;10908;50.690;4.400;2022-08-19T22:03:40;21.20;82.20
21493;DHT22;10908;50.690;4.400;2022-08-19T22:06:07;21.30;82.10
21493;DHT22;10908;50.690;4.400;2022-08-19T22:08:34;21.30;81.70
21493;DHT22;10908;50.690;4.400;2022-08-19T22:11:01;21.20;81.80
21493;DHT22;10908;50.690;4.400;2022-08-19T22:13:27;21.20;81.10
21493;DHT22;10908;50.690;4.400;2022-08-19T22:15:54;21.10;80.90
21493;DHT22;10908;50.690;4.400;2022-08-19T22:18:20;21.00;81.40
21493;DHT22;10908;50.690;4.400;2022-08-19T22:20:46;21.10;81.10
21493;DHT22;10908;50.690;4.400;2022-08-19T22:23:12;21.00;80.70
21493;DHT22;10908;50.690;4.400;2022-08-19T22:25:42;21.00;80.30
21493;DHT22;10908;50.690;4.400;2022-08-19T22:28:10;20.80;80.10
21493;DHT22;10908;50.690;4.400;2022-08-19T22:30:38;20.80;80.30
21493;DHT22;10908;50.690;4.400;2022-08-19T22:33:06;20.60;78.70
21493;DHT22;10908;50.690;4.400;2022-08-19T22:35:34;20.50;79.10
21493;DHT22;10908;50.690;4.400;2022-08-19T22:38:01;20.40;79.10
21493;DHT22;10908;50.690;4.400;2022-08-19T22:40:28;20.50;78.80
21493;DHT22;10908;50.690;4.400;2022-08-19T22:43:05;20.40;78.90
21493;DHT22;10908;50.690;4.400;2022-08-19T22:45:32;20.50;78.70
21493;DHT22;10908;50.690;4.400;2022-08-19T22:47:58;20.40;79.00
21493;DHT22;10908;50.690;4.400;2022-08-19T22:50:25;20.40;79.00
21493;DHT22;10908;50.690;4.400;2022-08-19T22:52:58;20.50;78.80
21493;DHT22;10908;50.690;4.400;2022-08-19T22:55:25;20.40;78.90
21493;DHT22;10908;50.690;4.400;2022-08-19T22:57:51;20.50;78.70
21493;DHT22;10908;50.690;4.400;2022-08-19T23:00:19;20.40;78.80
21493;DHT22;10908;50.690;4.400;2022-08-19T23:02:45;20.40;78.70
21493;DHT22;10908;50.690;4.400;2022-08-19T23:05:12;20.50;78.30
21493;DHT22;10908;50.690;4.400;2022-08-19T23:07:38;20.40;78.30
21493;DHT22;10908;50.690;4.400;2022-08-19T23:10:08;20.30;78.20
21493;DHT22;10908;50.690;4.400;2022-08-19T23:12:41;20.20;78.30
21493;DHT22;10908;50.690;4.400;2022-08-19T23:15:28;20.10;78.50
21493;DHT22;10908;50.690;4.400;2022-08-19T23:17:57;20.10;78.10
21493;DHT22;10908;50.690;4.400;2022-08-19T23:20:25;20.00;78.50
21493;DHT22;10908;50.690;4.400;2022-08-19T23:22:52;20.10;78.40
21493;DHT22;10908;50.690;4.400;2022-08-19T23:25:24;20.10;78.00
21493;DHT22;10908;50.690;4.400;2022-08-19T23:27:50;20.10;77.50
21493;DHT22;10908;50.690;4.400;2022-08-19T23:30:37;20.20;77.40
21493;DHT22;10908;50.690;4.400;2022-08-19T23:33:09;20.10;77.70
21493;DHT22;10908;50.690;4.400;2022-08-19T23:35:38;20.00;77.80
21493;DHT22;10908;50.690;4.400;2022-08-19T23:38:05;20.00;77.90
21493;DHT22;10908;50.690;4.400;2022-08-19T23:40:33;20.00;78.00
21493;DHT22;10908;50.690;4.400;2022-08-19T23:42:59;20.00;77.60
21493;DHT22;10908;50.690;4.400;2022-08-19T23:45:25;20.10;77.70
21493;DHT22;10908;50.690;4.400;2022-08-19T23:47:52;20.10;77.50
21493;DHT22;10908;50.690;4.400;2022-08-19T23:50:19;20.10;77.30
21493;DHT22;10908;50.690;4.400;2022-08-19T23:52:48;20.10;77.10
21493;DHT22;10908;50.690;4.400;2022-08-19T23:55:15;19.90;77.30
21493;DHT22;10908;50.690;4.400;2022-08-19T23:57:41;19.80;77.70
